createdAt,value
2018-04-09T20:35:58.161Z,17.73
2018-04-09T20:38:32.877Z,19.33
2018-04-09T20:41:09.113Z,18.33
2018-04-09T20:43:47.537Z,26.17
2018-04-09T20:46:19.222Z,25.53
2018-04-09T20:48:49.303Z,24.97
2018-04-09T20:51:19.534Z,25.53
2018-04-09T20:53:49.798Z,27.23
2018-04-09T20:56:20.619Z,27.87
2018-04-09T20:58:50.594Z,28.63
2018-04-09T21:01:20.906Z,24.67
2018-04-09T21:03:50.872Z,26.97
2018-04-09T21:06:20.894Z,27.00
2018-04-09T21:08:51.902Z,25.27
2018-04-09T21:11:21.811Z,25.73
2018-04-09T21:13:52.562Z,31.00
2018-04-09T21:16:22.962Z,32.00
2018-04-09T21:18:53.006Z,28.90
2018-04-09T21:21:23.982Z,29.83
2018-04-09T21:23:55.002Z,31.33
2018-04-09T21:26:24.990Z,34.63
2018-04-09T21:28:55.446Z,34.70
2018-04-09T21:31:25.620Z,37.53
2018-04-09T21:33:56.050Z,33.23
2018-04-09T21:36:26.411Z,33.23
2018-04-09T21:38:56.790Z,38.40
2018-04-09T21:41:27.766Z,32.17
2018-04-09T21:43:58.253Z,35.17
2018-04-09T21:46:28.204Z,35.17
2018-04-09T21:48:59.930Z,36.17
2018-04-09T21:51:30.998Z,34.70
2018-04-09T21:54:00.919Z,33.10
2018-04-09T21:56:30.898Z,37.13
2018-04-09T21:59:01.305Z,37.00
2018-04-09T22:01:33.086Z,35.13
2018-04-09T22:04:03.003Z,36.63
2018-04-09T22:06:33.371Z,34.53
2018-04-09T22:09:03.504Z,36.70
2018-04-09T22:11:33.972Z,36.83
2018-04-09T22:14:04.294Z,35.00
2018-04-09T22:16:34.402Z,33.10
2018-04-09T22:19:05.043Z,36.67
2018-04-09T22:21:35.338Z,36.80
2018-04-09T22:24:05.299Z,38.20
2018-04-09T22:26:37.034Z,38.23
2018-04-09T22:29:09.522Z,38.13
2018-04-09T22:31:41.283Z,32.87
2018-04-09T22:34:11.294Z,34.80
2018-04-09T22:36:42.009Z,33.73
2018-04-09T22:39:12.891Z,33.00
2018-04-09T22:41:43.179Z,36.03
2018-04-09T22:44:13.788Z,35.93
2018-04-09T22:46:43.763Z,34.27
2018-04-09T22:49:17.394Z,37.67
2018-04-09T22:51:47.287Z,31.57
2018-04-09T22:54:18.053Z,33.47
2018-04-09T22:56:48.229Z,33.33
2018-04-09T22:59:18.242Z,33.07
2018-04-09T23:01:48.418Z,33.03
2018-04-09T23:04:18.823Z,36.70
2018-04-09T23:06:48.982Z,36.20
2018-04-09T23:09:20.125Z,32.93
2018-04-09T23:11:50.057Z,37.27
2018-04-09T23:14:20.114Z,34.03
2018-04-09T23:16:50.656Z,33.67
2018-04-09T23:19:20.643Z,34.30
2018-04-09T23:21:50.491Z,35.23
2018-04-09T23:24:20.832Z,34.57
2018-04-09T23:26:51.489Z,35.63
2018-04-09T23:29:21.484Z,37.27
2018-04-09T23:31:52.624Z,35.17
2018-04-09T23:34:23.665Z,35.67
2018-04-09T23:36:54.273Z,34.43
2018-04-09T23:39:24.417Z,37.67
2018-04-09T23:41:55.067Z,40.13
2018-04-09T23:44:24.882Z,33.80
2018-04-09T23:46:55.130Z,34.83
2018-04-09T23:49:25.015Z,33.50
2018-04-09T23:51:54.810Z,33.77
2018-04-09T23:54:25.007Z,31.17
2018-04-09T23:56:54.913Z,35.03
2018-04-09T23:59:25.609Z,32.80
